Time;durP1;ratioP1;P1;durP2;ratioP2;P2;SDS_P1;SDS_P2;PMS_P1;PMS_P2;Temp;Humidity;BMP_temperature;BMP_pressure;BME280_temperature;BME280_humidity;BME280_pressure;Samples;Min_cycle;Max_cycle;Signal;HPM_P1;HPM_P2
2021/12/02 00:02:11;;;;;;;0.80;0.80;;;10.00;99.90;;;;;;5236683;28;20035;-76
2021/12/02 00:04:45;;;;;;;0.80;0.80;;;10.00;99.90;;;;;;5263537;28;20032;-76
2021/12/02 00:07:16;;;;;;;0.60;0.60;;;10.10;99.90;;;;;;5246627;28;20048;-73
2021/12/02 00:09:47;;;;;;;0.60;0.60;;;10.10;99.90;;;;;;5263603;28;20225;-74
2021/12/02 00:12:20;;;;;;;1.42;1.33;;;10.00;99.90;;;;;;5263611;28;20091;-74
2021/12/02 00:14:52;;;;;;;0.73;0.73;;;10.00;99.90;;;;;;5260304;28;20023;-76
2021/12/02 00:17:27;;;;;;;0.65;0.65;;;9.90;99.90;;;;;;5239561;28;20031;-76
2021/12/02 00:23:28;;;;;;;0.70;0.70;;;9.90;99.90;;;;;;5265686;28;20039;-73
2021/12/02 00:26:02;;;;;;;0.63;0.63;;;9.90;99.90;;;;;;5243867;28;20025;-75
2021/12/02 00:28:41;;;;;;;;;;;9.90;99.90;;;;;;5242934;28;20059;-74
2021/12/02 00:31:18;;;;;;;0.80;0.80;;;9.90;99.90;;;;;;5247825;28;19953;-76
2021/12/02 00:33:57;;;;;;;0.80;0.80;;;9.90;99.90;;;;;;5263148;28;20028;-77
2021/12/02 00:36:32;;;;;;;0.70;0.70;;;10.00;99.90;;;;;;5263210;28;20069;-74
2021/12/02 00:39:17;;;;;;;0.70;0.70;;;10.00;99.90;;;;;;5231707;28;20035;-74
2021/12/02 00:41:52;;;;;;;0.45;0.45;;;10.10;99.90;;;;;;5287999;28;20353;-74
2021/12/02 00:44:23;;;;;;;0.75;0.75;;;10.10;99.90;;;;;;5287416;28;20027;-75
2021/12/02 00:46:57;;;;;;;0.70;0.70;;;10.20;99.90;;;;;;5299649;28;20498;-75
2021/12/02 00:49:31;;;;;;;0.70;0.70;;;10.10;99.90;;;;;;5286011;28;20032;-75
2021/12/02 00:52:05;;;;;;;0.70;0.70;;;10.20;99.90;;;;;;5267177;28;20043;-74
2021/12/02 00:54:42;;;;;;;;;;;10.20;99.90;;;;;;5245246;28;20102;-74
2021/12/02 00:57:13;;;;;;;0.60;0.60;;;10.10;99.90;;;;;;5267846;28;19908;-74
2021/12/02 00:59:49;;;;;;;0.70;0.70;;;10.20;99.90;;;;;;5284237;28;20074;-76
2021/12/02 01:02:22;;;;;;;0.52;0.52;;;10.10;99.90;;;;;;5284137;28;20028;-75
2021/12/02 01:04:55;;;;;;;0.60;0.60;;;10.20;99.90;;;;;;5296599;27;20027;-74
2021/12/02 01:07:28;;;;;;;0.40;0.40;;;10.30;99.90;;;;;;5309845;27;20038;-75
2021/12/02 01:10:01;;;;;;;0.80;0.80;;;10.30;99.90;;;;;;5320057;27;20030;-75
2021/12/02 01:12:38;;;;;;;0.65;0.65;;;10.30;99.90;;;;;;5306803;27;20097;-74
2021/12/02 01:15:13;;;;;;;0.60;0.60;;;10.30;99.90;;;;;;5288036;27;20043;-75
2021/12/02 01:17:44;;;;;;;0.80;0.80;;;10.20;99.90;;;;;;5256129;28;20542;-75
2021/12/02 01:20:18;;;;;;;0.80;0.80;;;10.20;99.90;;;;;;5305610;27;20064;-75
2021/12/02 01:22:52;;;;;;;0.70;0.70;;;10.20;99.90;;;;;;5308768;27;20023;-76
2021/12/02 01:25:23;;;;;;;0.70;0.70;;;10.20;99.90;;;;;;5298008;27;20107;-75
2021/12/02 01:28:00;;;;;;;1.50;1.40;;;10.10;99.90;;;;;;5315114;27;20446;-75
2021/12/02 01:30:34;;;;;;;0.55;0.55;;;10.10;99.90;;;;;;5297647;27;20029;-74
2021/12/02 01:33:07;;;;;;;0.70;0.70;;;10.10;99.90;;;;;;5331656;27;20019;-74
2021/12/02 01:35:42;;;;;;;0.50;0.50;;;10.00;99.90;;;;;;5314462;27;20042;-75
2021/12/02 01:38:15;;;;;;;0.60;0.60;;;10.00;99.90;;;;;;5312858;27;20026;-74
2021/12/02 01:40:47;;;;;;;0.47;0.47;;;10.10;99.90;;;;;;5272101;28;20518;-74
2021/12/02 01:43:35;;;;;;;0.50;0.50;;;10.00;99.90;;;;;;5241650;28;20057;-75
2021/12/02 01:46:06;;;;;;;0.50;0.50;;;10.10;99.90;;;;;;5258222;28;20024;-74
2021/12/02 01:48:41;;;;;;;1.15;1.15;;;10.10;99.90;;;;;;5265140;28;20134;-74
2021/12/02 01:51:13;;;;;;;0.50;0.50;;;10.10;99.90;;;;;;5264987;28;20032;-74
2021/12/02 01:53:49;;;;;;;0.65;0.65;;;10.10;99.90;;;;;;5267640;28;20047;-75
2021/12/02 01:56:28;;;;;;;0.70;0.70;;;10.10;99.90;;;;;;5265986;28;20043;-74
2021/12/02 01:59:17;;;;;;;0.60;0.60;;;10.10;99.90;;;;;;5267120;28;20031;-75
2021/12/02 02:01:58;;;;;;;0.50;0.50;;;10.00;99.90;;;;;;5265592;28;20222;-74
2021/12/02 02:04:32;;;;;;;0.65;0.65;;;10.00;99.90;;;;;;5266235;28;20028;-74
2021/12/02 02:07:13;;;;;;;0.60;0.60;;;10.10;99.90;;;;;;5264525;28;20059;-74
2021/12/02 02:09:49;;;;;;;0.60;0.60;;;10.10;99.90;;;;;;5265331;28;20342;-74
2021/12/02 02:12:21;;;;;;;0.73;0.73;;;10.00;99.90;;;;;;5253256;28;20064;-75
2021/12/02 02:14:53;;;;;;;0.50;0.50;;;10.10;99.90;;;;;;5266273;28;20039;-74
2021/12/02 02:17:27;;;;;;;0.50;0.50;;;10.10;99.90;;;;;;5264402;28;20341;-74
2021/12/02 02:20:04;;;;;;;0.73;0.73;;;10.00;99.90;;;;;;5264768;28;20047;-75
2021/12/02 02:22:35;;;;;;;0.50;0.50;;;10.00;99.90;;;;;;5262971;28;20540;-75
2021/12/02 02:25:13;;;;;;;0.77;0.77;;;10.00;99.90;;;;;;5258481;28;20032;-74
2021/12/02 02:27:45;;;;;;;0.50;0.50;;;10.10;99.90;;;;;;5271533;28;20094;-74
2021/12/02 02:30:18;;;;;;;0.70;0.70;;;10.00;99.90;;;;;;5280312;28;20024;-73
2021/12/02 02:32:52;;;;;;;1.43;1.33;;;10.00;99.90;;;;;;5265130;28;20103;-75
2021/12/02 02:35:25;;;;;;;0.90;0.90;;;10.00;99.90;;;;;;5247844;28;20284;-75
2021/12/02 02:37:59;;;;;;;0.73;0.73;;;10.00;99.90;;;;;;5248107;28;20101;-75
2021/12/02 02:40:35;;;;;;;0.80;0.80;;;10.00;99.90;;;;;;5261881;28;20048;-74
2021/12/02 02:43:11;;;;;;;0.52;0.52;;;10.10;99.90;;;;;;5261035;28;20032;-76
2021/12/02 02:45:44;;;;;;;0.50;0.50;;;10.10;99.90;;;;;;5247510;28;20020;-74
2021/12/02 02:48:18;;;;;;;0.70;0.70;;;10.00;99.90;;;;;;5257576;28;20036;-76
2021/12/02 02:50:51;;;;;;;0.63;0.63;;;9.90;99.90;;;;;;5244113;28;20367;-75
2021/12/02 02:53:28;;;;;;;0.52;0.52;;;9.90;99.90;;;;;;5212743;28;20024;-75
2021/12/02 03:09:56;;;;;;;0.50;0.50;;;9.90;99.90;;;;;;5261412;28;20055;-76
2021/12/02 03:12:36;;;;;;;0.52;0.52;;;9.90;99.90;;;;;;5255250;28;20044;-76
2021/12/02 03:17:39;;;;;;;0.80;0.80;;;9.80;99.90;;;;;;5257087;28;20531;-75
2021/12/02 03:20:11;;;;;;;0.70;0.70;;;9.70;99.90;;;;;;5263488;28;20034;-74
2021/12/02 03:22:44;;;;;;;0.82;0.82;;;9.70;99.90;;;;;;5262309;28;20032;-75
2021/12/02 03:25:19;;;;;;;0.70;0.70;;;9.60;99.90;;;;;;5266385;28;20026;-75
2021/12/02 03:27:53;;;;;;;0.50;0.50;;;9.60;99.90;;;;;;5246779;28;20358;-74
2021/12/02 03:30:24;;;;;;;0.45;0.45;;;9.60;99.90;;;;;;5263854;28;20028;-76
2021/12/02 03:32:55;;;;;;;0.70;0.70;;;9.60;99.90;;;;;;5245032;28;20044;-75
2021/12/02 03:35:29;;;;;;;0.60;0.60;;;9.50;99.90;;;;;;5244026;28;20047;-77
2021/12/02 03:38:00;;;;;;;0.70;0.70;;;9.50;99.90;;;;;;5253082;28;20121;-73
2021/12/02 03:40:33;;;;;;;0.60;0.60;;;9.60;99.90;;;;;;5257004;28;20040;-74
2021/12/02 03:43:04;;;;;;;0.80;0.80;;;9.80;99.90;;;;;;5262576;28;20070;-75
2021/12/02 03:45:38;;;;;;;0.70;0.70;;;9.70;99.90;;;;;;5274152;28;20142;-76
2021/12/02 03:48:08;;;;;;;0.65;0.65;;;9.70;99.90;;;;;;5251501;28;20036;-76
2021/12/02 03:50:40;;;;;;;0.60;0.60;;;9.70;99.90;;;;;;5263362;28;20059;-76
2021/12/02 03:53:11;;;;;;;0.40;0.40;;;9.60;99.90;;;;;;5245560;28;20332;-76
2021/12/02 03:55:42;;;;;;;0.70;0.70;;;9.70;99.90;;;;;;5262073;28;20039;-75
2021/12/02 03:58:13;;;;;;;0.50;0.50;;;9.70;99.90;;;;;;5264132;28;20020;-75
2021/12/02 04:00:46;;;;;;;0.60;0.60;;;9.80;99.90;;;;;;5244955;28;20140;-75
2021/12/02 04:03:19;;;;;;;0.70;0.70;;;9.80;99.90;;;;;;5261693;28;20072;-73
2021/12/02 04:05:53;;;;;;;0.65;0.65;;;9.80;99.90;;;;;;5255832;28;20028;-74
2021/12/02 04:09:00;;;;;;;0.90;0.90;;;9.70;99.90;;;;;;5244997;28;20020;-75
2021/12/02 04:11:40;;;;;;;0.60;0.60;;;9.70;99.90;;;;;;5239931;28;20081;-76
2021/12/02 04:17:19;;;;;;;0.60;0.60;;;9.60;99.90;;;;;;5166517;28;20045;-75
2021/12/02 04:19:52;;;;;;;0.63;0.63;;;9.60;99.90;;;;;;5161788;28;20045;-74
2021/12/02 04:22:25;;;;;;;0.70;0.70;;;9.50;99.90;;;;;;5140729;28;20681;-75
2021/12/02 04:25:02;;;;;;;0.70;0.70;;;9.50;99.90;;;;;;5162550;28;20104;-74
2021/12/02 04:27:33;;;;;;;0.80;0.80;;;9.50;99.90;;;;;;5160572;28;20042;-75
2021/12/02 04:30:09;;;;;;;0.82;0.82;;;9.50;99.90;;;;;;5161811;28;20146;-73
2021/12/02 04:32:40;;;;;;;0.80;0.80;;;9.50;99.90;;;;;;5141489;28;20041;-75
2021/12/02 04:35:12;;;;;;;0.65;0.65;;;9.50;99.90;;;;;;5186666;28;20033;-76
2021/12/02 04:37:45;;;;;;;0.60;0.60;;;9.60;99.90;;;;;;5169226;28;20117;-74
2021/12/02 04:40:23;;;;;;;0.75;0.75;;;9.60;99.90;;;;;;5191553;28;20049;-76
2021/12/02 04:42:54;;;;;;;0.65;0.65;;;9.50;99.90;;;;;;5162808;28;20096;-74
2021/12/02 04:45:25;;;;;;;0.77;0.77;;;9.60;99.90;;;;;;5164771;28;20033;-74
2021/12/02 04:47:55;;;;;;;0.50;0.50;;;9.60;99.90;;;;;;5205185;28;20039;-74
2021/12/02 04:50:27;;;;;;;0.80;0.80;;;9.60;99.90;;;;;;5204963;28;20088;-76
2021/12/02 04:52:59;;;;;;;0.60;0.60;;;9.40;99.90;;;;;;5268247;27;20035;-75
2021/12/02 04:55:30;;;;;;;0.82;0.82;;;9.50;99.90;;;;;;5308467;27;20072;-74
2021/12/02 04:58:03;;;;;;;0.77;0.77;;;9.40;99.90;;;;;;5308039;27;20051;-74
2021/12/02 05:00:35;;;;;;;0.90;0.90;;;9.40;99.90;;;;;;5307847;27;20043;-74
2021/12/02 05:03:14;;;;;;;0.60;0.60;;;9.40;99.90;;;;;;5286042;27;20034;-75
2021/12/02 05:05:45;;;;;;;0.73;0.73;;;9.40;99.90;;;;;;5278180;28;20027;-74
2021/12/02 05:08:18;;;;;;;0.70;0.70;;;9.40;99.90;;;;;;5269629;28;20132;-77
2021/12/02 05:10:50;;;;;;;0.70;0.70;;;9.40;99.90;;;;;;5278814;28;20039;-75
2021/12/02 05:13:32;;;;;;;0.73;0.73;;;9.40;99.90;;;;;;5268071;28;20015;-74
2021/12/02 05:16:06;;;;;;;0.98;0.98;;;9.40;99.90;;;;;;5270640;27;20029;-75
2021/12/02 05:18:42;;;;;;;0.68;0.68;;;9.40;99.90;;;;;;5267370;28;20039;-74
2021/12/02 05:21:13;;;;;;;0.80;0.80;;;9.30;99.90;;;;;;5266681;28;20048;-74
2021/12/02 05:23:51;;;;;;;1.02;1.02;;;9.30;99.90;;;;;;5265262;28;20055;-74
2021/12/02 05:26:24;;;;;;;0.50;0.50;;;9.30;99.90;;;;;;5267614;28;20036;-74
2021/12/02 05:28:57;;;;;;;0.90;0.90;;;9.40;99.90;;;;;;5265171;28;20035;-75
2021/12/02 05:31:28;;;;;;;0.70;0.70;;;9.30;99.90;;;;;;5264036;28;20565;-74
2021/12/02 05:34:03;;;;;;;0.90;0.90;;;9.40;99.90;;;;;;5271817;28;20093;-74
2021/12/02 05:36:34;;;;;;;0.70;0.70;;;9.30;99.90;;;;;;5286440;28;20031;-74
2021/12/02 05:39:05;;;;;;;0.90;0.90;;;9.20;99.90;;;;;;5301074;27;20468;-76
2021/12/02 05:41:36;;;;;;;0.47;0.47;;;9.20;99.90;;;;;;5292431;28;20036;-75
2021/12/02 05:44:15;;;;;;;0.90;0.90;;;9.20;99.90;;;;;;5301830;28;20018;-74
2021/12/02 05:46:47;;;;;;;0.75;0.75;;;9.20;99.90;;;;;;5268427;28;20034;-75
2021/12/02 05:49:18;;;;;;;0.85;0.85;;;9.20;99.90;;;;;;5268028;28;20039;-77
2021/12/02 05:51:52;;;;;;;0.70;0.70;;;9.10;99.90;;;;;;5285064;28;20069;-76
2021/12/02 05:54:23;;;;;;;0.85;0.85;;;9.20;99.90;;;;;;5284372;28;20039;-75
2021/12/02 05:56:54;;;;;;;0.60;0.60;;;9.20;99.90;;;;;;5267034;28;20628;-74
2021/12/02 05:59:28;;;;;;;0.60;0.60;;;9.10;99.90;;;;;;5283862;28;20051;-74
2021/12/02 06:02:01;;;;;;;0.90;0.90;;;9.20;99.90;;;;;;5281066;28;20111;-75
2021/12/02 06:04:32;;;;;;;0.60;0.60;;;9.10;99.90;;;;;;5281822;28;20102;-75
2021/12/02 06:07:04;;;;;;;0.80;0.80;;;9.10;99.90;;;;;;5284097;28;20024;-74
2021/12/02 06:09:37;;;;;;;0.60;0.60;;;9.10;99.90;;;;;;5285650;28;20035;-75
2021/12/02 06:12:09;;;;;;;0.68;0.68;;;9.10;99.90;;;;;;5283550;28;20039;-77
2021/12/02 06:14:40;;;;;;;0.80;0.80;;;9.10;99.90;;;;;;5285271;28;20043;-75
2021/12/02 06:17:11;;;;;;;0.80;0.80;;;9.10;99.90;;;;;;5282529;28;20091;-75
2021/12/02 06:19:47;;;;;;;0.63;0.63;;;9.00;99.90;;;;;;5263698;28;20031;-76
2021/12/02 06:22:18;;;;;;;0.80;0.80;;;9.00;99.90;;;;;;5263091;28;20028;-77
2021/12/02 06:27:46;;;;;;;2.63;1.27;;;8.90;99.90;;;;;;5232073;28;20032;-75
2021/12/02 06:30:21;;;;;;;0.73;0.73;;;8.90;99.90;;;;;;5274242;28;20020;-76
2021/12/02 06:32:53;;;;;;;0.80;0.80;;;8.90;99.90;;;;;;5280796;28;20043;-75
2021/12/02 06:35:23;;;;;;;0.50;0.50;;;8.80;99.90;;;;;;5277916;28;20028;-74
2021/12/02 06:37:58;;;;;;;0.50;0.50;;;8.70;99.90;;;;;;5247350;28;20354;-77
2021/12/02 06:40:29;;;;;;;0.57;0.57;;;8.70;99.90;;;;;;5209670;28;1295596;-75
2021/12/02 06:43:02;;;;;;;0.73;0.73;;;8.70;99.90;;;;;;5246604;28;20024;-75
2021/12/02 06:45:33;;;;;;;0.55;0.55;;;8.70;99.90;;;;;;5263740;28;20026;-74
2021/12/02 06:48:05;;;;;;;0.70;0.70;;;8.70;99.90;;;;;;5243398;28;20020;-75
2021/12/02 06:50:38;;;;;;;0.73;0.73;;;8.80;99.90;;;;;;5245303;28;20020;-77
2021/12/02 06:53:10;;;;;;;0.90;0.90;;;8.80;99.90;;;;;;5243867;28;20159;-77
2021/12/02 06:55:41;;;;;;;1.55;1.38;;;8.90;99.90;;;;;;5258331;28;20276;-76
2021/12/02 06:58:12;;;;;;;0.90;0.90;;;8.80;99.90;;;;;;5271108;28;20032;-76
2021/12/02 07:00:48;;;;;;;1.00;1.00;;;8.70;99.90;;;;;;5262441;28;20054;-77
2021/12/02 07:03:19;;;;;;;0.60;0.60;;;8.70;99.90;;;;;;5264395;28;20041;-76
2021/12/02 07:05:53;;;;;;;1.02;1.02;;;8.70;99.90;;;;;;5242851;28;20100;-78
2021/12/02 07:08:24;;;;;;;1.20;1.20;;;8.70;99.90;;;;;;5250412;28;20024;-76
2021/12/02 07:10:55;;;;;;;0.60;0.60;;;8.70;99.90;;;;;;5245990;28;20313;-75
2021/12/02 07:13:26;;;;;;;0.77;0.77;;;8.70;99.90;;;;;;5264750;28;20233;-75
2021/12/02 07:16:00;;;;;;;0.68;0.68;;;8.70;99.90;;;;;;5263143;28;20043;-75
2021/12/02 07:18:36;;;;;;;0.93;0.93;;;8.80;99.90;;;;;;5271019;28;20326;-75
2021/12/02 07:21:12;;;;;;;0.60;0.60;;;8.80;99.90;;;;;;5231316;28;20024;-74
2021/12/02 07:23:43;;;;;;;0.70;0.70;;;8.80;99.90;;;;;;5248851;28;20027;-77
2021/12/02 07:26:15;;;;;;;0.88;0.88;;;8.80;99.90;;;;;;5246595;28;20075;-75
2021/12/02 07:28:47;;;;;;;0.90;0.90;;;8.80;99.90;;;;;;5254691;28;20097;-74
2021/12/02 07:31:32;;;;;;;0.80;0.80;;;8.90;99.90;;;;;;5264669;28;20379;-76
2021/12/02 07:34:05;;;;;;;;;;;8.80;99.90;;;;;;5264556;28;20169;-75
2021/12/02 07:36:41;;;;;;;0.75;0.75;;;8.80;99.90;;;;;;5264725;28;19953;-75
2021/12/02 07:39:16;;;;;;;0.70;0.70;;;8.90;99.90;;;;;;5270050;27;20158;-77
2021/12/02 07:41:47;;;;;;;0.35;0.35;;;8.80;99.90;;;;;;5290972;27;20027;-77
2021/12/02 07:44:19;;;;;;;0.70;0.70;;;8.90;99.90;;;;;;5289501;27;20336;-77
2021/12/02 07:46:50;;;;;;;0.80;0.80;;;8.80;99.90;;;;;;5306472;27;20054;-76
2021/12/02 07:49:25;;;;;;;0.90;0.90;;;8.90;99.90;;;;;;5284175;27;20273;-76
2021/12/02 07:52:01;;;;;;;0.68;0.68;;;8.90;99.90;;;;;;5288563;27;20101;-76
2021/12/02 07:54:38;;;;;;;0.90;0.90;;;8.90;99.90;;;;;;5287270;27;20336;-75
2021/12/02 07:57:13;;;;;;;0.90;0.90;;;8.90;99.90;;;;;;5270140;27;20045;-78
2021/12/02 07:59:51;;;;;;;0.63;0.63;;;9.00;99.90;;;;;;5292148;27;20037;-77
2021/12/02 08:02:24;;;;;;;0.73;0.73;;;9.10;99.90;;;;;;5300914;27;20042;-77
2021/12/02 08:04:55;;;;;;;0.98;0.98;;;9.10;99.90;;;;;;5291530;27;20047;-76
2021/12/02 08:07:29;;;;;;;0.68;0.68;;;9.10;99.90;;;;;;5305850;27;20136;-76
2021/12/02 08:10:03;;;;;;;0.70;0.70;;;9.10;99.90;;;;;;5297945;27;20018;-75
2021/12/02 08:12:35;;;;;;;0.90;0.90;;;9.10;99.90;;;;;;5314763;27;20031;-75
2021/12/02 08:15:09;;;;;;;0.80;0.80;;;9.20;99.90;;;;;;5319103;27;20380;-78
2021/12/02 08:17:43;;;;;;;0.90;0.90;;;9.10;99.90;;;;;;5326623;27;20041;-77
2021/12/02 08:20:15;;;;;;;1.00;1.00;;;9.20;99.90;;;;;;5307980;27;20298;-75
2021/12/02 08:22:46;;;;;;;0.80;0.80;;;9.10;99.90;;;;;;5279313;27;20054;-75
2021/12/02 08:25:22;;;;;;;0.80;0.80;;;9.20;99.90;;;;;;5305064;27;20491;-75
2021/12/02 08:27:59;;;;;;;0.60;0.60;;;9.20;99.90;;;;;;5274418;28;20042;-75
2021/12/02 08:30:33;;;;;;;0.90;0.90;;;9.20;99.90;;;;;;5284899;27;20035;-75
2021/12/02 08:33:07;;;;;;;0.75;0.75;;;9.30;99.90;;;;;;5272011;27;20027;-76
2021/12/02 08:35:38;;;;;;;0.68;0.68;;;9.30;99.90;;;;;;5282628;28;20043;-77
2021/12/02 08:38:11;;;;;;;0.77;0.77;;;9.40;99.90;;;;;;5289216;27;20039;-75
2021/12/02 08:40:44;;;;;;;0.60;0.60;;;9.40;99.90;;;;;;5284680;28;20041;-78
2021/12/02 08:43:17;;;;;;;0.63;0.63;;;9.40;99.90;;;;;;5262688;28;20242;-75
2021/12/02 08:45:48;;;;;;;0.82;0.82;;;9.40;99.90;;;;;;5262121;28;20271;-76
2021/12/02 08:48:20;;;;;;;0.80;0.80;;;9.50;99.90;;;;;;5242979;28;20036;-75
2021/12/02 08:50:53;;;;;;;0.55;0.55;;;9.50;99.90;;;;;;5261574;28;20043;-76
2021/12/02 08:53:26;;;;;;;0.88;0.88;;;9.50;99.90;;;;;;5260028;28;20178;-75
2021/12/02 08:55:57;;;;;;;0.82;0.82;;;9.50;99.90;;;;;;5256983;28;20030;-77
2021/12/02 08:58:36;;;;;;;0.70;0.70;;;9.50;99.90;;;;;;5260875;28;20028;-75
2021/12/02 09:01:06;;;;;;;0.60;0.60;;;9.50;99.90;;;;;;5262517;28;20245;-75
2021/12/02 09:03:38;;;;;;;0.47;0.47;;;9.60;99.90;;;;;;5261918;28;20028;-76
2021/12/02 09:06:11;;;;;;;0.60;0.60;;;9.50;99.90;;;;;;5261345;28;20034;-76
2021/12/02 09:08:45;;;;;;;0.90;0.90;;;9.40;99.90;;;;;;5257772;28;20108;-77
2021/12/02 09:11:19;;;;;;;0.70;0.70;;;9.40;99.90;;;;;;5262418;28;20028;-74
2021/12/02 09:13:51;;;;;;;0.90;0.90;;;9.40;99.90;;;;;;5259967;28;20012;-75
2021/12/02 09:16:25;;;;;;;0.57;0.57;;;9.30;99.90;;;;;;5255962;28;20120;-76
2021/12/02 09:19:02;;;;;;;0.60;0.60;;;9.30;99.90;;;;;;5264452;28;20040;-75
2021/12/02 09:21:33;;;;;;;0.93;0.93;;;9.30;99.90;;;;;;5264140;28;20029;-74
2021/12/02 09:24:07;;;;;;;0.50;0.50;;;9.40;99.90;;;;;;5261858;28;20452;-73
2021/12/02 09:26:39;;;;;;;0.60;0.60;;;9.30;99.90;;;;;;5264017;28;20040;-76
2021/12/02 09:29:15;;;;;;;0.77;0.77;;;9.30;99.90;;;;;;5264308;28;20062;-76
2021/12/02 09:31:49;;;;;;;0.80;0.80;;;9.30;99.90;;;;;;5264575;28;20067;-77
2021/12/02 09:34:28;;;;;;;0.57;0.57;;;9.30;99.90;;;;;;5267330;28;20070;-76
2021/12/02 09:36:59;;;;;;;1.42;1.42;;;9.40;99.90;;;;;;5262616;28;20032;-76
2021/12/02 09:39:34;;;;;;;0.95;0.95;;;9.40;99.90;;;;;;5266696;28;20046;-76
2021/12/02 09:42:05;;;;;;;0.50;0.50;;;9.30;99.90;;;;;;5265596;28;20058;-75
2021/12/02 09:44:47;;;;;;;0.70;0.70;;;9.30;99.90;;;;;;5265117;28;20099;-76
2021/12/02 09:47:20;;;;;;;0.80;0.80;;;9.30;99.90;;;;;;5254991;28;20036;-77
2021/12/02 09:49:51;;;;;;;0.80;0.80;;;9.40;99.90;;;;;;5228414;28;20262;-75
2021/12/02 09:52:35;;;;;;;0.68;0.68;;;9.30;99.90;;;;;;5263648;28;20083;-75
2021/12/02 09:57:55;;;;;;;0.75;0.75;;;9.40;99.90;;;;;;5260530;28;20040;-75
2021/12/02 10:00:46;;;;;;;0.70;0.70;;;9.30;99.90;;;;;;5230762;28;20095;-77
2021/12/02 10:03:33;;;;;;;0.70;0.70;;;9.10;99.90;;;;;;5265157;28;20099;-76
2021/12/02 10:06:21;;;;;;;0.60;0.60;;;9.00;99.90;;;;;;5264900;28;20039;-74
2021/12/02 10:09:07;;;;;;;0.55;0.55;;;8.90;99.90;;;;;;5261333;28;20032;-76
2021/12/02 10:11:56;;;;;;;0.70;0.70;;;9.00;99.90;;;;;;5264720;28;20016;-77
2021/12/02 10:14:37;;;;;;;0.70;0.70;;;8.90;99.90;;;;;;5265225;28;20035;-77
2021/12/02 10:17:18;;;;;;;0.65;0.65;;;9.00;99.90;;;;;;5263637;28;20463;-76
2021/12/02 10:20:38;;;;;;;1.38;1.30;;;9.10;99.90;;;;;;5258564;28;20306;-76
2021/12/02 10:23:25;;;;;;;0.90;0.90;;;8.90;99.90;;;;;;5263559;28;20245;-77
2021/12/02 10:26:03;;;;;;;0.68;0.68;;;8.80;99.90;;;;;;5265983;28;20083;-76
2021/12/02 10:28:42;;;;;;;0.70;0.70;;;8.70;99.90;;;;;;5264279;28;20083;-76
2021/12/02 10:31:20;;;;;;;0.82;0.82;;;8.70;99.90;;;;;;5264331;28;20032;-74
2021/12/02 10:34:03;;;;;;;0.80;0.80;;;8.70;99.90;;;;;;5255843;28;20031;-75
2021/12/02 10:36:43;;;;;;;0.88;0.88;;;8.80;99.90;;;;;;5257353;28;20052;-77
2021/12/02 10:39:20;;;;;;;1.17;1.17;;;8.70;99.90;;;;;;5242857;28;20097;-76
2021/12/02 10:42:08;;;;;;;0.47;0.47;;;8.50;99.90;;;;;;5266484;28;20034;-75
2021/12/02 10:44:41;;;;;;;0.63;0.63;;;8.30;99.90;;;;;;5254632;28;20403;-75
2021/12/02 10:47:15;;;;;;;0.63;0.63;;;8.20;99.90;;;;;;5244645;28;20024;-75
2021/12/02 10:49:51;;;;;;;0.67;0.67;;;8.10;99.90;;;;;;5242503;28;20341;-75
2021/12/02 10:52:26;;;;;;;0.55;0.55;;;8.00;99.90;;;;;;5260791;28;20024;-74
2021/12/02 10:55:03;;;;;;;0.50;0.50;;;7.90;99.90;;;;;;5264036;28;20024;-75
2021/12/02 10:57:38;;;;;;;0.80;0.80;;;7.90;99.90;;;;;;5256528;28;20173;-74
2021/12/02 11:00:19;;;;;;;0.63;0.63;;;7.80;99.90;;;;;;5264463;28;20268;-76
2021/12/02 11:02:54;;;;;;;0.40;0.40;;;7.70;99.90;;;;;;5264662;28;20091;-76
2021/12/02 11:05:31;;;;;;;0.50;0.50;;;7.60;99.90;;;;;;5263443;28;20318;-74
2021/12/02 11:08:04;;;;;;;0.50;0.50;;;7.40;99.90;;;;;;5265002;28;20274;-74
2021/12/02 11:10:39;;;;;;;0.60;0.60;;;7.30;99.90;;;;;;5264376;28;20036;-75
2021/12/02 11:13:20;;;;;;;0.50;0.50;;;7.30;99.90;;;;;;5263234;28;20099;-76
2021/12/02 11:15:52;;;;;;;0.50;0.50;;;7.30;99.90;;;;;;5262490;28;20073;-75
2021/12/02 11:18:23;;;;;;;0.70;0.70;;;7.20;99.90;;;;;;5256995;28;20103;-77
2021/12/02 11:20:59;;;;;;;0.57;0.57;;;7.20;99.90;;;;;;5257625;28;20309;-75
2021/12/02 11:23:47;;;;;;;0.40;0.40;;;7.20;99.90;;;;;;5237199;28;20534;-75
2021/12/02 11:26:19;;;;;;;0.60;0.60;;;7.30;99.90;;;;;;5236217;28;20088;-75
2021/12/02 11:28:52;;;;;;;0.60;0.60;;;7.30;99.90;;;;;;5244035;28;20473;-77
2021/12/02 11:31:23;;;;;;;0.52;0.52;;;7.30;99.90;;;;;;5262259;28;20187;-75
2021/12/02 11:33:56;;;;;;;0.60;0.60;;;7.30;99.90;;;;;;5262608;28;20047;-75
2021/12/02 11:36:30;;;;;;;0.93;0.93;;;7.40;99.90;;;;;;5264238;28;20109;-74
2021/12/02 11:39:04;;;;;;;;;;;7.40;99.90;;;;;;5261204;28;20057;-75
2021/12/02 11:41:35;;;;;;;0.50;0.50;;;7.40;99.90;;;;;;5263325;28;19923;-75
2021/12/02 11:44:06;;;;;;;0.68;0.68;;;7.40;99.90;;;;;;5261591;28;20055;-75
2021/12/02 11:46:39;;;;;;;1.10;1.10;;;7.40;99.90;;;;;;5263026;28;20230;-75
2021/12/02 11:49:10;;;;;;;0.68;0.68;;;7.40;99.90;;;;;;5258143;28;20054;-75
2021/12/02 11:51:46;;;;;;;0.75;0.75;;;7.40;99.90;;;;;;5262698;28;20059;-75
2021/12/02 11:54:17;;;;;;;0.55;0.55;;;7.40;99.90;;;;;;5238763;28;20105;-75
2021/12/02 11:56:48;;;;;;;0.60;0.60;;;7.40;99.90;;;;;;5257154;28;20121;-75
2021/12/02 11:59:21;;;;;;;0.60;0.60;;;7.40;99.90;;;;;;5240913;28;20046;-74
2021/12/02 12:01:59;;;;;;;0.90;0.90;;;7.40;99.90;;;;;;5253267;28;20427;-74
2021/12/02 12:04:33;;;;;;;0.70;0.70;;;7.50;99.90;;;;;;5261601;28;20019;-74
2021/12/02 12:07:14;;;;;;;0.68;0.68;;;7.60;99.90;;;;;;5261091;28;20035;-74
2021/12/02 12:09:45;;;;;;;0.65;0.65;;;7.70;99.90;;;;;;5262772;28;20099;-75
2021/12/02 12:12:18;;;;;;;0.70;0.70;;;7.70;99.90;;;;;;5260550;28;20067;-75
2021/12/02 12:14:49;;;;;;;0.57;0.57;;;7.70;99.90;;;;;;5262744;28;20376;-73
2021/12/02 12:17:25;;;;;;;0.70;0.70;;;7.70;99.90;;;;;;5259554;28;20036;-75
2021/12/02 12:19:56;;;;;;;0.90;0.90;;;7.80;99.90;;;;;;5261793;28;20117;-75
2021/12/02 12:22:32;;;;;;;0.73;0.73;;;7.80;99.90;;;;;;5261997;28;20023;-75
2021/12/02 12:25:07;;;;;;;0.70;0.70;;;7.80;99.90;;;;;;5245151;28;20036;-75
2021/12/02 12:27:39;;;;;;;0.70;0.70;;;7.90;99.90;;;;;;5262418;28;20031;-74
2021/12/02 12:30:11;;;;;;;0.90;0.90;;;7.80;99.90;;;;;;5258717;28;20115;-75
2021/12/02 12:35:40;;;;;;;1.35;1.35;;;7.80;99.90;;;;;;5267353;28;20059;-76
2021/12/02 12:38:31;;;;;;;0.80;0.80;;;7.70;99.90;;;;;;5240616;28;20108;-74
2021/12/02 12:41:17;;;;;;;0.80;0.80;;;7.80;99.90;;;;;;5262471;28;20068;-75
2021/12/02 12:43:52;;;;;;;2.47;2.08;;;8.00;99.90;;;;;;5261568;28;20028;-75
2021/12/02 12:46:27;;;;;;;0.50;0.50;;;8.00;99.90;;;;;;5227696;28;20020;-77
2021/12/02 12:49:17;;;;;;;0.70;0.70;;;8.10;99.90;;;;;;5256799;28;20112;-75
2021/12/02 12:51:55;;;;;;;0.68;0.68;;;8.10;99.90;;;;;;5260093;28;20035;-75
2021/12/02 12:54:25;;;;;;;0.77;0.77;;;8.00;99.90;;;;;;5261423;28;20024;-75
2021/12/02 12:57:08;;;;;;;0.70;0.70;;;8.00;99.90;;;;;;5243798;28;20101;-75
2021/12/02 12:59:55;;;;;;;0.77;0.77;;;8.00;99.90;;;;;;5234879;28;20040;-75
2021/12/02 13:02:32;;;;;;;0.73;0.73;;;8.10;99.90;;;;;;5260790;28;20077;-76
2021/12/02 13:05:06;;;;;;;0.80;0.80;;;8.10;99.90;;;;;;5262691;28;20032;-75
2021/12/02 13:07:40;;;;;;;1.15;1.15;;;8.10;99.90;;;;;;5240659;28;20031;-74
2021/12/02 13:10:25;;;;;;;0.60;0.60;;;8.00;99.90;;;;;;5246460;28;20504;-74
2021/12/02 13:12:58;;;;;;;;;;;8.00;99.90;;;;;;5247875;28;20024;-75
2021/12/02 13:15:29;;;;;;;0.52;0.52;;;8.00;99.90;;;;;;5264268;28;19907;-76
2021/12/02 13:18:02;;;;;;;0.60;0.60;;;8.00;99.90;;;;;;5242318;28;20127;-75
2021/12/02 13:20:41;;;;;;;0.70;0.70;;;8.00;99.90;;;;;;5263723;28;20035;-77
2021/12/02 13:23:17;;;;;;;0.60;0.60;;;7.90;99.90;;;;;;5263445;28;20042;-75
2021/12/02 13:25:54;;;;;;;0.70;0.70;;;8.00;99.90;;;;;;5263645;28;20081;-76
2021/12/02 13:28:33;;;;;;;0.60;0.60;;;8.10;99.90;;;;;;5263636;28;20035;-77
2021/12/02 13:31:11;;;;;;;0.80;0.80;;;8.00;99.90;;;;;;5265898;28;20031;-77
2021/12/02 13:33:58;;;;;;;0.70;0.70;;;7.90;99.90;;;;;;5264825;28;20035;-78
2021/12/02 13:36:36;;;;;;;0.57;0.57;;;7.90;99.90;;;;;;5245443;28;20031;-77
2021/12/02 13:39:29;;;;;;;0.70;0.70;;;7.90;99.90;;;;;;5255044;27;20419;-78
2021/12/02 13:42:14;;;;;;;0.70;0.70;;;7.80;99.90;;;;;;5297118;27;20369;-77
2021/12/02 13:44:51;;;;;;;;;;;7.60;99.90;;;;;;5310564;27;20023;-75
2021/12/02 13:47:31;;;;;;;0.80;0.80;;;7.60;99.90;;;;;;5271926;27;19919;-77
2021/12/02 13:50:13;;;;;;;0.82;0.82;;;7.60;99.90;;;;;;5308049;27;20046;-74
2021/12/02 13:52:51;;;;;;;0.60;0.60;;;7.50;99.90;;;;;;5296290;27;20033;-75
2021/12/02 13:55:27;;;;;;;1.92;1.83;;;7.50;99.90;;;;;;5295151;27;20051;-74
2021/12/02 14:00:47;;;;;;;0.65;0.65;;;7.40;99.90;;;;;;5301082;27;20034;-75
2021/12/02 14:03:21;;;;;;;0.88;0.88;;;7.40;99.90;;;;;;5271659;27;20027;-76
2021/12/02 14:05:58;;;;;;;0.77;0.77;;;7.40;99.90;;;;;;5269020;27;20030;-75
2021/12/02 14:08:37;;;;;;;0.93;0.93;;;7.40;99.90;;;;;;5289088;27;20088;-76
2021/12/02 14:11:10;;;;;;;0.70;0.70;;;7.40;99.90;;;;;;5286486;27;20035;-77
2021/12/02 14:13:41;;;;;;;0.50;0.50;;;7.40;99.90;;;;;;5305988;27;20019;-75